Time;durP1;ratioP1;P1;durP2;ratioP2;P2;SDS_P1;SDS_P2;PMS_P1;PMS_P2;Temp;Humidity;BMP_temperature;BMP_pressure;BME280_temperature;BME280_humidity;BME280_pressure;Samples;Min_cycle;Max_cycle;Signal;HPM_P1;HPM_P2
2023/05/08 00:01:36;;;;;;;9.23;5.10;;;15.00;99.90;;;;;;4964483;28;1045381;-76
2023/05/08 00:04:02;;;;;;;9.10;5.50;;;14.90;99.90;;;;;;4999254;28;20031;-76
2023/05/08 00:06:27;;;;;;;8.38;5.15;;;15.00;99.90;;;;;;4999717;28;20026;-76
2023/05/08 00:08:54;;;;;;;6.40;5.05;;;15.20;99.90;;;;;;4999339;28;20015;-76
2023/05/08 00:11:19;;;;;;;7.25;5.40;;;15.10;99.90;;;;;;5000347;28;20038;-76
2023/05/08 00:13:45;;;;;;;8.30;5.55;;;15.10;99.90;;;;;;4999246;28;20022;-76
2023/05/08 00:16:11;;;;;;;7.93;5.40;;;15.20;99.90;;;;;;4999135;28;20034;-76
2023/05/08 00:18:37;;;;;;;7.15;5.68;;;15.00;99.90;;;;;;5000122;28;20030;-76
2023/05/08 00:21:04;;;;;;;8.00;5.65;;;15.10;99.90;;;;;;5015480;28;20030;-76
2023/05/08 00:23:29;;;;;;;7.60;5.70;;;15.00;99.90;;;;;;4999815;28;20034;-76
2023/05/08 00:25:55;;;;;;;6.95;5.40;;;15.10;99.90;;;;;;5000257;28;20052;-76
2023/05/08 00:28:20;;;;;;;6.95;5.40;;;15.10;99.90;;;;;;5000058;28;20037;-76
2023/05/08 00:30:46;;;;;;;10.60;5.80;;;15.10;99.90;;;;;;5015259;28;20019;-76
2023/05/08 00:33:11;;;;;;;8.73;5.97;;;15.10;99.90;;;;;;4999304;28;20081;-75
2023/05/08 00:35:37;;;;;;;6.85;5.18;;;15.10;99.90;;;;;;4998846;28;20026;-76
2023/05/08 00:38:02;;;;;;;7.85;5.65;;;15.10;99.90;;;;;;4999958;28;20029;-76
2023/05/08 00:40:28;;;;;;;7.88;6.30;;;14.70;99.90;;;;;;4999553;28;20164;-76
2023/05/08 00:42:53;;;;;;;7.63;5.40;;;14.80;99.90;;;;;;4998396;28;20069;-76
2023/05/08 00:45:19;;;;;;;9.80;5.72;;;14.90;99.90;;;;;;4998606;28;20026;-76
2023/05/08 00:47:44;;;;;;;7.78;5.85;;;14.90;99.90;;;;;;4999808;28;20030;-76
2023/05/08 00:50:10;;;;;;;9.02;5.80;;;14.80;99.90;;;;;;4998821;28;20018;-76
2023/05/08 00:52:36;;;;;;;8.75;6.10;;;14.70;99.90;;;;;;4998405;28;20109;-76
2023/05/08 00:55:04;;;;;;;8.65;5.45;;;14.60;99.90;;;;;;4998584;28;20113;-76
2023/05/08 00:57:33;;;;;;;8.80;6.10;;;14.80;99.90;;;;;;4998418;28;20073;-74
2023/05/08 01:00:00;;;;;;;8.57;6.07;;;14.60;99.90;;;;;;4998998;28;20069;-74
2023/05/08 01:02:26;;;;;;;7.45;5.53;;;14.70;99.90;;;;;;4998536;28;20031;-74
2023/05/08 01:04:53;;;;;;;8.68;5.65;;;14.70;99.90;;;;;;4998188;28;20116;-74
2023/05/08 01:07:19;;;;;;;7.28;5.43;;;14.70;99.90;;;;;;4998992;28;20054;-74
2023/05/08 01:09:45;;;;;;;7.70;5.50;;;14.80;99.90;;;;;;4998992;28;20046;-74
2023/05/08 01:12:38;;;;;;;9.35;5.90;;;14.80;99.90;;;;;;4998852;28;20022;-74
2023/05/08 01:15:17;;;;;;;8.30;5.60;;;14.90;99.90;;;;;;4998164;28;20027;-74
2023/05/08 01:18:14;;;;;;;6.45;5.40;;;14.70;99.90;;;;;;4999250;28;20030;-74
2023/05/08 01:21:02;;;;;;;10.05;5.65;;;14.80;99.90;;;;;;4998029;28;20069;-74
2023/05/08 01:23:39;;;;;;;8.13;5.72;;;14.60;99.90;;;;;;4999004;28;20026;-74
2023/05/08 01:26:30;;;;;;;10.40;6.72;;;14.60;99.90;;;;;;4997840;28;20038;-74
2023/05/08 01:29:17;;;;;;;8.27;5.53;;;14.60;99.90;;;;;;4998414;28;20052;-74
2023/05/08 01:32:01;;;;;;;6.57;5.28;;;14.70;99.90;;;;;;4998141;28;20030;-74
2023/05/08 01:34:31;;;;;;;7.97;5.88;;;14.50;99.90;;;;;;4999124;28;20102;-74
2023/05/08 01:37:04;;;;;;;7.82;5.80;;;14.70;99.90;;;;;;4998014;28;20022;-74
2023/05/08 01:39:49;;;;;;;7.93;6.00;;;14.60;99.90;;;;;;4998127;28;20022;-73
2023/05/08 01:42:45;;;;;;;7.63;5.75;;;14.50;99.90;;;;;;5014319;28;20033;-74
2023/05/08 01:45:33;;;;;;;9.73;5.60;;;14.60;99.90;;;;;;4998765;28;20044;-74
2023/05/08 01:48:10;;;;;;;8.70;5.47;;;14.40;99.90;;;;;;4998560;28;20030;-74
2023/05/08 01:50:47;;;;;;;9.75;6.30;;;14.50;99.90;;;;;;4997995;28;20029;-76
2023/05/08 01:53:20;;;;;;;7.75;5.55;;;14.40;99.90;;;;;;4997417;28;20037;-76
2023/05/08 01:55:48;;;;;;;7.97;5.95;;;14.20;99.90;;;;;;4999070;28;20061;-76
2023/05/08 01:58:15;;;;;;;8.18;5.82;;;14.30;99.90;;;;;;4998954;28;20026;-76
2023/05/08 02:00:42;;;;;;;12.30;5.88;;;14.40;99.90;;;;;;5002134;28;20035;-76
2023/05/08 02:03:10;;;;;;;14.52;5.25;;;14.30;99.90;;;;;;4997856;28;20023;-76
2023/05/08 02:05:37;;;;;;;8.60;5.40;;;14.20;99.90;;;;;;4998712;28;20034;-76
2023/05/08 02:08:03;;;;;;;7.20;4.90;;;14.30;99.90;;;;;;4997272;28;20023;-76
2023/05/08 02:10:30;;;;;;;10.65;5.45;;;14.30;99.90;;;;;;4997812;28;20022;-76
2023/05/08 02:12:58;;;;;;;7.30;5.07;;;13.80;99.90;;;;;;4998071;28;20030;-76
2023/05/08 02:15:26;;;;;;;8.57;5.68;;;13.60;99.90;;;;;;4998086;28;20028;-76
2023/05/08 02:17:54;;;;;;;7.88;5.30;;;13.90;99.90;;;;;;4998083;28;20022;-77
2023/05/08 02:20:21;;;;;;;6.07;4.75;;;13.90;99.90;;;;;;4997997;28;20031;-76
2023/05/08 02:22:49;;;;;;;7.72;5.03;;;13.90;99.90;;;;;;4997960;28;20023;-76
2023/05/08 02:25:15;;;;;;;8.55;5.45;;;14.00;99.90;;;;;;4996984;28;20029;-76
2023/05/08 02:27:44;;;;;;;9.07;5.93;;;13.90;99.90;;;;;;4997908;28;20018;-76
2023/05/08 02:30:13;;;;;;;8.30;5.57;;;13.90;99.90;;;;;;4996730;28;20022;-76
2023/05/08 02:32:44;;;;;;;7.05;5.28;;;13.90;99.90;;;;;;4997761;28;20038;-76
2023/05/08 02:35:15;;;;;;;9.60;5.68;;;14.00;99.90;;;;;;5013394;28;20030;-76
2023/05/08 02:37:44;;;;;;;6.40;5.22;;;14.20;99.90;;;;;;5013066;28;20125;-76
2023/05/08 02:40:12;;;;;;;7.97;5.15;;;14.20;99.90;;;;;;4997640;28;20104;-76
2023/05/08 02:42:37;;;;;;;9.63;4.75;;;14.00;99.90;;;;;;4997670;28;20026;-74
2023/05/08 02:45:04;;;;;;;7.85;5.10;;;14.00;99.90;;;;;;4997852;28;20030;-74
2023/05/08 02:47:56;;;;;;;9.27;5.60;;;14.20;99.90;;;;;;4997956;28;20027;-74
2023/05/08 02:50:56;;;;;;;7.55;5.03;;;14.20;99.90;;;;;;4997853;28;20037;-74
2023/05/08 02:53:33;;;;;;;8.98;5.30;;;14.20;99.90;;;;;;4978732;28;20034;-74
2023/05/08 02:56:11;;;;;;;10.30;5.22;;;14.10;99.90;;;;;;4997624;28;20029;-74
2023/05/08 02:58:43;;;;;;;7.95;5.53;;;14.10;99.90;;;;;;4997640;28;20095;-74
2023/05/08 03:01:28;;;;;;;7.95;5.25;;;13.90;99.90;;;;;;4996720;28;20125;-74
2023/05/08 03:04:28;;;;;;;9.90;5.80;;;13.80;99.90;;;;;;4997532;28;20026;-74
2023/05/08 03:06:56;;;;;;;11.13;5.63;;;14.00;99.90;;;;;;5000297;28;20023;-74
2023/05/08 03:09:25;;;;;;;8.95;5.50;;;13.90;99.90;;;;;;5005269;28;20042;-74
2023/05/08 03:12:02;;;;;;;7.70;5.50;;;14.00;99.90;;;;;;5000983;28;20022;-74
2023/05/08 03:14:31;;;;;;;7.47;5.50;;;13.90;99.90;;;;;;5000426;28;20117;-74
2023/05/08 03:16:59;;;;;;;9.43;5.25;;;13.90;99.90;;;;;;5001212;28;20030;-76
2023/05/08 03:19:34;;;;;;;7.30;5.55;;;14.00;99.90;;;;;;5001312;28;20086;-76
2023/05/08 03:22:02;;;;;;;9.88;4.85;;;14.20;99.90;;;;;;5016976;28;20061;-76
2023/05/08 03:24:30;;;;;;;8.52;5.45;;;14.20;99.90;;;;;;5001171;28;20061;-77
2023/05/08 03:26:57;;;;;;;11.45;5.93;;;14.10;99.90;;;;;;5001007;28;20023;-77
2023/05/08 03:29:24;;;;;;;10.23;5.15;;;14.10;99.90;;;;;;4999998;28;20027;-76
2023/05/08 03:31:50;;;;;;;9.25;5.82;;;14.10;99.90;;;;;;5016227;28;20037;-76
2023/05/08 03:34:18;;;;;;;7.63;5.28;;;13.80;99.90;;;;;;5000720;28;20022;-76
2023/05/08 03:36:44;;;;;;;10.30;5.53;;;13.70;99.90;;;;;;5001396;28;20037;-76
2023/05/08 03:39:10;;;;;;;11.52;5.82;;;13.80;99.90;;;;;;4999905;28;20104;-76
2023/05/08 03:41:35;;;;;;;7.82;5.28;;;13.90;99.90;;;;;;5000829;28;20086;-76
2023/05/08 03:44:02;;;;;;;7.95;5.47;;;13.80;99.90;;;;;;5001112;28;20031;-76
2023/05/08 03:46:30;;;;;;;13.88;5.90;;;13.90;99.90;;;;;;4999942;28;20037;-76
2023/05/08 03:48:59;;;;;;;9.25;6.05;;;14.10;99.90;;;;;;5000589;28;20019;-76
2023/05/08 03:51:26;;;;;;;6.90;5.63;;;13.90;99.90;;;;;;5000392;28;20025;-76
2023/05/08 03:53:52;;;;;;;8.88;5.43;;;14.00;99.90;;;;;;4999676;28;20026;-76
2023/05/08 03:56:18;;;;;;;7.70;5.13;;;13.90;99.90;;;;;;5000508;28;20026;-76
2023/05/08 03:58:49;;;;;;;7.47;5.07;;;13.80;99.90;;;;;;5000444;28;20033;-74
2023/05/08 04:01:24;;;;;;;8.18;5.63;;;13.90;99.90;;;;;;4999637;28;20061;-74
2023/05/08 04:04:05;;;;;;;7.35;5.30;;;13.90;99.90;;;;;;4999429;28;20026;-74
2023/05/08 04:06:37;;;;;;;7.83;5.50;;;13.70;99.90;;;;;;4999728;28;20046;-74
2023/05/08 04:09:30;;;;;;;12.13;5.07;;;13.60;99.90;;;;;;4999729;28;20313;-73
2023/05/08 04:12:16;;;;;;;9.68;5.40;;;13.70;99.90;;;;;;5000077;28;20030;-74
2023/05/08 04:14:47;;;;;;;7.43;5.50;;;13.80;99.90;;;;;;5003573;28;20110;-73
2023/05/08 04:17:16;;;;;;;12.50;5.90;;;13.90;99.90;;;;;;4999974;28;20022;-74
2023/05/08 04:19:45;;;;;;;8.40;6.05;;;13.80;99.90;;;;;;5000040;28;20053;-74
2023/05/08 04:22:13;;;;;;;9.20;5.00;;;13.80;99.90;;;;;;5000342;28;20041;-73
2023/05/08 04:24:44;;;;;;;7.60;5.57;;;13.90;99.90;;;;;;4999521;28;20034;-74
2023/05/08 04:27:11;;;;;;;8.15;5.78;;;13.80;99.90;;;;;;4999435;28;20118;-74
2023/05/08 04:29:37;;;;;;;9.95;5.75;;;13.80;99.90;;;;;;4998917;28;20129;-74
2023/05/08 04:32:04;;;;;;;9.20;5.93;;;13.90;99.90;;;;;;4999898;28;20027;-74
2023/05/08 04:34:30;;;;;;;8.40;6.00;;;13.80;99.90;;;;;;4999136;28;20026;-74
2023/05/08 04:36:56;;;;;;;8.68;5.68;;;13.80;99.90;;;;;;4999046;28;20026;-74
2023/05/08 04:39:21;;;;;;;10.40;6.03;;;13.80;99.90;;;;;;4998754;28;20054;-74
2023/05/08 04:41:47;;;;;;;9.60;5.53;;;13.70;99.90;;;;;;4998614;28;20030;-74
2023/05/08 04:44:13;;;;;;;8.20;5.70;;;13.60;99.90;;;;;;4999511;28;20031;-74
2023/05/08 04:46:39;;;;;;;8.10;5.57;;;13.60;99.90;;;;;;4999590;28;20026;-74
2023/05/08 04:49:04;;;;;;;8.93;5.57;;;13.60;99.90;;;;;;4999536;28;20022;-74
2023/05/08 04:51:30;;;;;;;7.60;5.30;;;13.70;99.90;;;;;;4999660;28;20077;-74
2023/05/08 04:53:56;;;;;;;11.27;6.22;;;13.70;99.90;;;;;;4999698;28;20018;-74
2023/05/08 04:56:21;;;;;;;8.48;6.10;;;13.70;99.90;;;;;;4999712;28;20022;-74
2023/05/08 04:58:47;;;;;;;6.88;5.13;;;13.70;99.90;;;;;;4999635;28;20042;-74
2023/05/08 05:01:12;;;;;;;8.30;6.10;;;13.70;99.90;;;;;;4998604;28;20085;-74
2023/05/08 05:03:38;;;;;;;9.30;5.82;;;13.50;99.90;;;;;;4998088;28;20058;-74
2023/05/08 05:06:04;;;;;;;12.65;5.93;;;13.60;99.90;;;;;;4998287;28;20018;-74
2023/05/08 05:08:29;;;;;;;9.02;5.72;;;13.40;99.90;;;;;;4998769;28;20084;-74
2023/05/08 05:10:55;;;;;;;9.23;5.53;;;13.40;99.90;;;;;;4999225;28;20019;-74
2023/05/08 05:13:20;;;;;;;9.48;5.32;;;13.50;99.90;;;;;;4999058;28;20046;-74
2023/05/08 05:15:46;;;;;;;8.93;5.82;;;13.70;99.90;;;;;;4999291;28;20058;-74
2023/05/08 05:18:11;;;;;;;10.48;5.68;;;13.60;99.90;;;;;;4999080;28;20041;-74
2023/05/08 05:20:37;;;;;;;8.52;5.65;;;13.80;99.90;;;;;;4997939;28;20026;-74
2023/05/08 05:23:03;;;;;;;12.02;6.25;;;13.80;99.90;;;;;;4998156;28;20022;-74
2023/05/08 05:25:29;;;;;;;10.55;6.10;;;13.70;99.90;;;;;;4997928;28;20030;-74
2023/05/08 05:27:54;;;;;;;9.55;5.95;;;13.70;99.90;;;;;;4997802;28;20026;-74
2023/05/08 05:30:20;;;;;;;8.77;5.85;;;13.70;99.90;;;;;;4997722;28;20022;-74
2023/05/08 05:32:46;;;;;;;13.77;6.63;;;13.60;99.90;;;;;;4998723;28;20026;-74
2023/05/08 05:35:12;;;;;;;9.10;5.95;;;13.60;99.90;;;;;;4998044;28;20030;-74
2023/05/08 05:37:37;;;;;;;9.38;6.15;;;13.60;99.90;;;;;;4998433;28;20058;-74
2023/05/08 05:40:03;;;;;;;8.40;6.35;;;13.50;99.90;;;;;;4998566;28;20034;-74
2023/05/08 05:42:29;;;;;;;8.60;5.53;;;13.60;99.90;;;;;;4998365;28;20037;-74
2023/05/08 05:44:55;;;;;;;13.48;6.70;;;13.70;99.90;;;;;;4997575;28;20018;-74
2023/05/08 05:47:21;;;;;;;14.18;7.05;;;13.80;99.90;;;;;;4997468;28;20022;-74
2023/05/08 05:49:47;;;;;;;11.13;6.95;;;13.40;99.90;;;;;;4998319;28;20049;-74
2023/05/08 05:52:13;;;;;;;12.88;8.02;;;13.30;99.90;;;;;;4997555;28;20094;-74
2023/05/08 05:54:40;;;;;;;14.77;7.75;;;13.40;99.90;;;;;;4997357;28;20117;-74
2023/05/08 05:57:06;;;;;;;13.38;6.72;;;13.70;99.90;;;;;;4997338;28;20029;-74
2023/05/08 05:59:32;;;;;;;12.43;7.32;;;13.60;99.90;;;;;;4997251;28;20030;-74
2023/05/08 06:01:57;;;;;;;13.82;6.68;;;13.60;99.90;;;;;;4998192;28;20068;-76
2023/05/08 06:04:23;;;;;;;10.93;7.15;;;13.80;99.90;;;;;;4998137;28;20026;-76
2023/05/08 06:06:49;;;;;;;11.98;6.88;;;13.90;99.90;;;;;;4998151;28;20051;-76
2023/05/08 06:09:14;;;;;;;11.00;7.35;;;13.80;99.90;;;;;;4998027;28;20025;-76
2023/05/08 06:11:40;;;;;;;11.57;7.05;;;13.60;99.90;;;;;;4997935;28;20037;-76
2023/05/08 06:14:06;;;;;;;13.38;7.35;;;13.80;99.90;;;;;;4997897;28;20026;-76
2023/05/08 06:16:32;;;;;;;12.00;7.72;;;13.90;99.90;;;;;;4997454;28;20030;-76
2023/05/08 06:18:57;;;;;;;12.32;8.40;;;14.00;99.90;;;;;;4997064;28;20029;-76
2023/05/08 06:21:23;;;;;;;13.30;7.53;;;14.00;99.90;;;;;;4998695;28;20062;-76
2023/05/08 06:23:49;;;;;;;13.02;7.28;;;14.00;99.90;;;;;;4997192;28;20058;-76
2023/05/08 06:26:14;;;;;;;12.57;7.43;;;13.90;99.90;;;;;;4996982;28;20050;-77
2023/05/08 06:28:40;;;;;;;15.85;8.25;;;13.70;99.90;;;;;;4997097;28;20023;-77
2023/05/08 06:31:05;;;;;;;12.30;7.75;;;13.80;99.90;;;;;;4996889;28;20029;-76
2023/05/08 06:33:31;;;;;;;10.93;7.55;;;13.80;99.90;;;;;;4998276;28;20022;-77
2023/05/08 06:35:56;;;;;;;12.82;8.32;;;13.70;99.90;;;;;;4996865;28;20022;-76
2023/05/08 06:38:22;;;;;;;11.13;7.57;;;13.80;99.90;;;;;;4997654;28;20041;-76
2023/05/08 06:40:49;;;;;;;10.43;6.80;;;13.80;99.90;;;;;;4996955;28;20023;-76
2023/05/08 06:43:15;;;;;;;11.63;7.75;;;13.90;99.90;;;;;;5013174;28;20030;-76
2023/05/08 06:45:42;;;;;;;11.40;7.97;;;14.00;99.90;;;;;;4997670;28;20077;-77
2023/05/08 06:48:08;;;;;;;13.23;8.30;;;13.90;99.90;;;;;;4997059;28;20023;-76
2023/05/08 06:50:36;;;;;;;11.73;7.40;;;13.80;99.90;;;;;;4997130;28;20026;-77
2023/05/08 06:53:02;;;;;;;14.05;7.60;;;13.90;99.90;;;;;;4996942;28;20086;-77
2023/05/08 06:55:27;;;;;;;14.65;8.60;;;14.00;99.90;;;;;;4997370;28;20065;-77
2023/05/08 06:57:53;;;;;;;13.10;8.85;;;13.80;99.90;;;;;;4997418;28;20030;-76
2023/05/08 07:00:19;;;;;;;13.95;8.05;;;13.80;99.90;;;;;;4997170;28;20037;-76
2023/05/08 07:02:44;;;;;;;13.75;9.68;;;13.60;99.90;;;;;;4997992;28;20027;-77
2023/05/08 07:05:10;;;;;;;11.82;8.10;;;13.70;99.90;;;;;;4996652;28;20037;-76
2023/05/08 07:07:35;;;;;;;13.70;8.50;;;13.80;99.90;;;;;;4997624;28;20026;-76
2023/05/08 07:10:01;;;;;;;13.27;8.63;;;13.80;99.90;;;;;;4996450;28;20030;-77
2023/05/08 07:12:26;;;;;;;14.13;8.38;;;13.90;99.90;;;;;;4997499;28;20026;-77
2023/05/08 07:14:52;;;;;;;14.25;9.15;;;13.90;99.90;;;;;;4996708;28;20022;-77
2023/05/08 07:17:18;;;;;;;18.63;9.52;;;14.00;99.90;;;;;;4996370;28;20034;-77
2023/05/08 07:19:43;;;;;;;13.98;8.57;;;14.00;99.90;;;;;;4997030;28;20073;-77
2023/05/08 07:22:09;;;;;;;16.85;9.73;;;14.00;99.90;;;;;;4996310;28;20026;-77
2023/05/08 07:24:35;;;;;;;16.98;8.68;;;13.90;99.90;;;;;;4997241;28;20030;-77
2023/05/08 07:27:01;;;;;;;18.50;9.35;;;13.60;99.90;;;;;;4997827;28;20098;-77
2023/05/08 07:29:26;;;;;;;14.85;9.60;;;13.70;99.90;;;;;;4997353;28;20050;-77
2023/05/08 07:31:52;;;;;;;14.82;9.82;;;13.80;99.90;;;;;;4996105;28;20120;-75
2023/05/08 07:34:18;;;;;;;20.45;9.80;;;13.90;99.90;;;;;;4996393;28;20023;-75
2023/05/08 07:36:44;;;;;;;15.32;10.32;;;13.90;99.90;;;;;;4996352;28;20057;-75
2023/05/08 07:39:09;;;;;;;17.15;9.85;;;13.70;99.90;;;;;;4996258;28;20030;-75
2023/05/08 07:41:35;;;;;;;21.27;9.82;;;13.60;99.90;;;;;;4996574;28;20022;-75
2023/05/08 07:44:02;;;;;;;18.15;10.30;;;13.70;99.90;;;;;;4996056;28;20084;-75
2023/05/08 07:46:27;;;;;;;20.42;11.65;;;13.80;99.90;;;;;;4997162;28;20022;-75
2023/05/08 07:48:53;;;;;;;17.70;10.55;;;13.90;99.90;;;;;;4996262;28;20029;-76
2023/05/08 07:51:18;;;;;;;16.23;10.40;;;13.80;99.90;;;;;;4996065;28;20023;-76
2023/05/08 07:53:44;;;;;;;17.42;10.55;;;13.80;99.90;;;;;;4999601;28;20030;-76
2023/05/08 07:56:09;;;;;;;16.85;9.48;;;14.00;99.90;;;;;;4999867;28;20203;-76
2023/05/08 07:58:35;;;;;;;17.90;10.93;;;13.90;99.90;;;;;;4999551;28;20048;-76
2023/05/08 08:01:01;;;;;;;19.92;10.10;;;14.00;99.90;;;;;;4999614;28;20030;-76
2023/05/08 08:03:26;;;;;;;14.43;9.25;;;13.90;99.90;;;;;;4999521;28;20077;-76
2023/05/08 08:05:52;;;;;;;17.55;9.88;;;13.90;99.90;;;;;;4999523;28;20109;-76
2023/05/08 08:08:17;;;;;;;19.42;9.38;;;14.00;99.90;;;;;;4999684;28;20018;-76
2023/05/08 08:10:43;;;;;;;16.80;10.80;;;14.20;99.90;;;;;;4999248;28;20062;-74
2023/05/08 08:13:08;;;;;;;17.50;9.18;;;14.30;99.90;;;;;;4999340;28;20022;-74
2023/05/08 08:15:34;;;;;;;16.00;9.82;;;14.20;99.90;;;;;;5015891;28;20033;-74
2023/05/08 08:18:00;;;;;;;14.98;9.75;;;14.00;99.90;;;;;;5000240;28;20054;-74
2023/05/08 08:20:26;;;;;;;16.98;9.05;;;14.20;99.90;;;;;;4998984;28;20038;-74
2023/05/08 08:22:52;;;;;;;16.40;10.65;;;14.40;99.90;;;;;;4999233;28;20022;-74
2023/05/08 08:25:17;;;;;;;17.13;10.00;;;14.50;99.90;;;;;;4999999;28;20026;-74
2023/05/08 08:27:43;;;;;;;16.67;10.13;;;14.10;99.90;;;;;;4998899;28;20029;-74
2023/05/08 08:30:09;;;;;;;14.88;9.20;;;14.10;99.90;;;;;;4999851;28;20027;-73
2023/05/08 08:32:34;;;;;;;13.70;8.50;;;14.10;99.90;;;;;;4999051;28;20053;-73
2023/05/08 08:35:00;;;;;;;15.75;9.75;;;14.10;99.90;;;;;;4999011;28;20037;-73
2023/05/08 08:37:25;;;;;;;17.20;9.07;;;14.00;99.90;;;;;;4998762;28;20034;-73
2023/05/08 08:39:51;;;;;;;16.83;8.70;;;14.10;99.90;;;;;;4999636;28;20030;-73
2023/05/08 08:42:17;;;;;;;19.40;9.23;;;14.20;99.90;;;;;;4999061;28;20026;-73
2023/05/08 08:44:42;;;;;;;17.00;10.23;;;14.40;99.90;;;;;;4998703;28;20063;-73
2023/05/08 08:47:11;;;;;;;16.58;9.88;;;14.70;99.90;;;;;;4998989;28;20023;-73
2023/05/08 08:49:42;;;;;;;15.25;9.35;;;14.90;99.90;;;;;;4998592;28;20023;-73
2023/05/08 08:52:36;;;;;;;15.95;9.50;;;15.00;99.90;;;;;;4999041;28;20050;-73
2023/05/08 08:55:06;;;;;;;12.90;7.45;;;15.10;99.90;;;;;;4999415;28;20099;-73
2023/05/08 08:57:35;;;;;;;13.48;9.13;;;15.20;99.90;;;;;;4999424;28;20164;-72
2023/05/08 09:00:05;;;;;;;15.43;9.50;;;15.10;99.90;;;;;;4999278;28;20054;-73
2023/05/08 09:02:31;;;;;;;13.80;9.10;;;15.30;99.90;;;;;;4999241;28;20045;-73
2023/05/08 09:04:57;;;;;;;15.32;8.02;;;15.20;99.90;;;;;;4997438;28;20031;-73
2023/05/08 09:07:24;;;;;;;17.83;9.25;;;15.30;99.90;;;;;;4999122;28;20046;-73
2023/05/08 09:09:50;;;;;;;15.70;8.98;;;15.40;99.90;;;;;;4997999;28;20029;-73
2023/05/08 09:12:15;;;;;;;17.58;8.52;;;15.50;99.90;;;;;;4999373;28;20026;-73
2023/05/08 09:14:41;;;;;;;14.50;7.95;;;15.40;99.90;;;;;;4998030;28;20026;-73
2023/05/08 09:17:07;;;;;;;15.95;8.07;;;15.30;99.90;;;;;;4999011;28;20031;-73
2023/05/08 09:19:34;;;;;;;16.92;9.13;;;15.20;99.90;;;;;;4998082;28;20030;-73
2023/05/08 09:22:00;;;;;;;13.10;7.97;;;15.20;99.90;;;;;;4998799;28;20105;-73
2023/05/08 09:24:45;;;;;;;16.85;7.93;;;15.10;99.90;;;;;;4998315;28;20030;-73
2023/05/08 09:27:21;;;;;;;12.32;7.55;;;15.10;99.90;;;;;;4997762;28;20026;-73
2023/05/08 09:30:07;;;;;;;14.55;8.30;;;15.30;99.90;;;;;;5014665;28;20031;-73
2023/05/08 09:32:35;;;;;;;11.05;7.43;;;15.20;99.90;;;;;;4998678;28;20023;-73
2023/05/08 09:35:01;;;;;;;13.43;7.88;;;15.40;99.90;;;;;;4997723;28;20056;-73
2023/05/08 09:37:27;;;;;;;12.15;7.40;;;15.50;99.90;;;;;;4998511;28;20022;-73
2023/05/08 09:39:53;;;;;;;10.52;7.72;;;15.30;99.90;;;;;;4997774;28;20030;-76
2023/05/08 09:42:20;;;;;;;13.68;7.28;;;15.10;99.90;;;;;;4998562;28;20026;-74
2023/05/08 09:44:52;;;;;;;12.43;7.82;;;15.30;99.90;;;;;;4997773;28;20026;-73
2023/05/08 09:47:20;;;;;;;13.00;7.72;;;15.20;99.90;;;;;;4998508;28;20022;-74
2023/05/08 09:50:00;;;;;;;14.20;7.90;;;15.20;99.90;;;;;;4997659;28;20045;-74
2023/05/08 09:52:30;;;;;;;15.52;8.50;;;15.30;99.90;;;;;;4997612;28;20025;-73
2023/05/08 09:55:00;;;;;;;12.40;7.80;;;15.20;99.90;;;;;;4997520;28;20026;-73
2023/05/08 09:57:27;;;;;;;10.30;7.77;;;15.20;99.90;;;;;;4998584;28;20027;-73
2023/05/08 10:00:05;;;;;;;11.05;7.20;;;15.10;99.90;;;;;;4997205;28;20061;-75
2023/05/08 10:02:32;;;;;;;12.55;7.28;;;15.20;99.90;;;;;;4998407;28;20030;-74
2023/05/08 10:04:57;;;;;;;12.60;8.07;;;15.40;99.90;;;;;;4998379;28;20080;-73
2023/05/08 10:07:31;;;;;;;12.38;7.57;;;15.50;99.90;;;;;;4998561;28;20090;-76
2023/05/08 10:10:02;;;;;;;11.20;7.68;;;15.40;99.90;;;;;;4998071;28;20034;-76
2023/05/08 10:12:28;;;;;;;12.30;7.50;;;15.50;99.90;;;;;;4997296;28;20029;-76
2023/05/08 10:14:54;;;;;;;9.73;7.05;;;15.60;99.90;;;;;;5013333;28;20026;-77
2023/05/08 10:17:36;;;;;;;13.40;7.53;;;15.50;99.90;;;;;;4997098;28;20034;-76
2023/05/08 10:20:06;;;;;;;12.07;7.57;;;15.50;99.90;;;;;;4996965;28;20026;-72
2023/05/08 10:22:35;;;;;;;11.35;8.32;;;15.40;99.90;;;;;;4997759;28;20061;-73
2023/05/08 10:25:02;;;;;;;10.40;7.32;;;15.40;99.90;;;;;;4997062;28;20060;-74
2023/05/08 10:27:40;;;;;;;13.60;8.23;;;15.40;99.90;;;;;;4997245;28;20037;-73
2023/05/08 10:30:07;;;;;;;11.30;7.80;;;15.50;99.90;;;;;;4996909;28;20026;-75
2023/05/08 10:32:39;;;;;;;10.73;7.25;;;15.50;99.90;;;;;;4997346;28;20076;-75
2023/05/08 10:35:08;;;;;;;16.45;8.10;;;15.40;99.90;;;;;;4996914;28;20033;-75
2023/05/08 10:37:35;;;;;;;14.30;7.38;;;15.50;99.90;;;;;;5013247;28;20026;-75
2023/05/08 10:40:02;;;;;;;14.48;7.53;;;15.70;99.90;;;;;;4997146;28;20206;-76
2023/05/08 10:42:28;;;;;;;17.75;8.07;;;15.70;99.90;;;;;;4997664;28;20038;-75
2023/05/08 10:44:54;;;;;;;11.65;7.65;;;15.70;99.90;;;;;;4996728;28;20022;-74
2023/05/08 10:47:39;;;;;;;13.52;7.63;;;15.70;99.90;;;;;;4998086;28;20058;-74
2023/05/08 10:50:21;;;;;;;11.68;7.53;;;15.80;99.90;;;;;;4997535;28;20029;-75
2023/05/08 10:52:53;;;;;;;13.05;8.82;;;15.90;99.90;;;;;;4997586;28;20018;-74
2023/05/08 10:55:21;;;;;;;12.70;7.50;;;15.90;99.90;;;;;;4997732;28;20023;-75
2023/05/08 10:58:10;;;;;;;11.10;7.45;;;15.80;99.90;;;;;;4997481;28;20067;-74
2023/05/08 11:00:51;;;;;;;13.15;8.93;;;15.90;99.90;;;;;;4996783;28;20026;-76
2023/05/08 11:03:22;;;;;;;10.77;8.05;;;15.90;99.90;;;;;;4997669;28;20034;-74
2023/05/08 11:05:50;;;;;;;11.75;7.55;;;15.90;99.90;;;;;;4996715;28;20018;-74
2023/05/08 11:08:24;;;;;;;13.40;8.50;;;16.00;99.90;;;;;;4996594;28;20125;-75
2023/05/08 11:11:03;;;;;;;16.50;10.30;;;16.20;99.90;;;;;;4997703;28;20023;-75
2023/05/08 11:13:37;;;;;;;16.55;10.02;;;16.30;99.90;;;;;;4998094;28;20022;-75
2023/05/08 11:16:05;;;;;;;17.75;10.95;;;16.00;99.90;;;;;;4997510;28;20064;-74
2023/05/08 11:18:31;;;;;;;15.13;10.35;;;15.90;99.90;;;;;;4996632;28;20033;-74
2023/05/08 11:21:05;;;;;;;19.60;11.25;;;15.70;99.90;;;;;;4997238;28;20022;-74
2023/05/08 11:23:37;;;;;;;17.65;10.98;;;15.80;99.90;;;;;;4996438;28;20030;-73
2023/05/08 11:26:10;;;;;;;16.17;11.15;;;15.80;99.90;;;;;;4996725;28;20058;-74
2023/05/08 11:28:37;;;;;;;18.02;10.48;;;15.70;99.90;;;;;;5000825;28;20026;-74
2023/05/08 11:31:04;;;;;;;17.67;9.77;;;15.80;99.90;;;;;;5000272;28;20027;-74
2023/05/08 11:33:36;;;;;;;20.90;12.68;;;15.80;99.90;;;;;;5000375;28;20023;-74
2023/05/08 11:36:21;;;;;;;17.60;9.73;;;15.70;99.90;;;;;;5000921;28;20026;-74
2023/05/08 11:39:08;;;;;;;20.38;12.65;;;15.90;99.90;;;;;;5000002;28;20034;-74
2023/05/08 11:41:33;;;;;;;19.85;11.90;;;15.70;99.90;;;;;;4999918;28;20033;-74
2023/05/08 11:44:03;;;;;;;20.23;11.93;;;15.80;99.90;;;;;;4999866;28;20023;-76
2023/05/08 11:46:53;;;;;;;18.60;11.20;;;15.80;99.90;;;;;;5000757;28;20022;-76
2023/05/08 11:49:21;;;;;;;12.88;8.18;;;15.90;99.90;;;;;;4997236;28;20121;-76
2023/05/08 11:51:54;;;;;;;15.55;9.57;;;16.10;99.90;;;;;;5000148;28;20023;-76
2023/05/08 11:54:21;;;;;;;14.98;8.65;;;16.20;99.90;;;;;;4999799;28;20073;-77
2023/05/08 11:56:52;;;;;;;21.35;11.23;;;16.30;99.90;;;;;;4999672;28;20030;-76
2023/05/08 11:59:18;;;;;;;12.32;8.80;;;16.20;99.90;;;;;;4999601;28;20026;-76
2023/05/08 12:01:47;;;;;;;15.48;10.65;;;16.20;99.90;;;;;;5000839;28;20121;-74
2023/05/08 12:04:12;;;;;;;15.07;9.13;;;16.40;99.90;;;;;;4999943;28;20102;-74
2023/05/08 12:06:39;;;;;;;14.90;9.60;;;16.40;99.90;;;;;;4999480;28;20054;-74
2023/05/08 12:09:13;;;;;;;16.70;7.28;;;16.40;99.90;;;;;;5015727;28;20026;-74
2023/05/08 12:11:42;;;;;;;12.82;7.50;;;16.60;99.90;;;;;;4999361;28;20050;-74
2023/05/08 12:14:08;;;;;;;13.70;8.27;;;16.80;99.90;;;;;;5000350;28;20022;-74
2023/05/08 12:16:38;;;;;;;11.35;6.85;;;16.90;99.90;;;;;;4999318;28;20026;-74
2023/05/08 12:19:09;;;;;;;13.80;7.55;;;17.00;99.90;;;;;;4999195;28;20022;-74
2023/05/08 12:21:35;;;;;;;13.02;8.30;;;17.10;99.90;;;;;;5000170;28;20125;-74
2023/05/08 12:24:04;;;;;;;11.63;8.20;;;17.20;99.90;;;;;;4999073;28;20169;-73
2023/05/08 12:26:35;;;;;;;12.23;8.68;;;17.50;99.90;;;;;;5000027;28;20022;-74
2023/05/08 12:29:00;;;;;;;13.93;8.37;;;17.70;99.90;;;;;;5000588;28;20033;-74
2023/05/08 12:31:26;;;;;;;13.48;8.88;;;17.80;99.90;;;;;;4999271;28;20022;-74
2023/05/08 12:33:53;;;;;;;10.15;7.28;;;18.10;99.90;;;;;;4999484;28;20026;-74
2023/05/08 12:36:18;;;;;;;10.45;7.53;;;18.00;99.90;;;;;;4999922;28;20034;-74
2023/05/08 12:38:44;;;;;;;13.35;8.40;;;18.20;99.90;;;;;;4999113;28;20027;-73
2023/05/08 12:41:10;;;;;;;17.73;9.40;;;18.30;99.90;;;;;;4999783;28;20026;-74
2023/05/08 12:43:36;;;;;;;13.02;9.43;;;18.30;99.90;;;;;;4999799;28;20058;-73
2023/05/08 12:46:03;;;;;;;16.67;7.60;;;18.20;99.90;;;;;;4998766;28;20022;-74
2023/05/08 12:48:29;;;;;;;8.80;7.38;;;18.60;99.90;;;;;;4999627;28;20027;-74
2023/05/08 12:51:01;;;;;;;10.10;7.40;;;18.60;99.90;;;;;;4999675;28;20022;-74